This is the latest recevied weather packets stored in our database for station/object WI5ARD. If no packets are shown the sender has not sent any weather packets the latest 10 day(s).
| Time | Temp. | Humidity | Pressure | Rain* | Wind** | Luminosity | Snow |
|---|---|---|---|---|---|---|---|
| 1777699839 | 11.11° C | 96% | 1014.7 hPa | 2.03 mm | - | 0 W/m² | - |
| 1777698953 | 11.11° C | 96% | 1015.3 hPa | 0.51 mm | - | 0 W/m² | - |
| 1777697136 | 11.67° C | 96% | 1014.7 hPa | 0 mm | - | 0 W/m² | - |
| 1777696235 | 11.67° C | 96% | 1014.6 hPa | 0 mm | - | 0 W/m² | - |
| 1777691120 | 12.22° C | 96% | 1015.4 hPa | 0.76 mm | - | 0 W/m² | - |
| 1777690833 | 12.22° C | 96% | 1015.3 hPa | 0.76 mm | - | 0 W/m² | - |
| 1777688421 | 12.22° C | 96% | 1014.4 hPa | 4.06 mm | - | 0 W/m² | - |
| 1777688136 | 12.78° C | 96% | 1014.3 hPa | 4.32 mm | - | 0 W/m² | - |
| 1777687821 | 12.22° C | 96% | 1014 hPa | 4.83 mm | - | 0 W/m² | - |
| 1777685122 | 12.78° C | 96% | 1013.9 hPa | 2.79 mm | - | 0 W/m² | - |
| 1777680952 | 12.22° C | 96% | 1013.8 hPa | 2.03 mm | - | 0 W/m² | - |
| 1777680037 | 12.22° C | 96% | 1013.4 hPa | 1.02 mm | - | 0 W/m² | - |
| 1777677922 | 12.78° C | 96% | 1013.7 hPa | 1.52 mm | - | 12 W/m² | - |
| 1777676438 | 12.78° C | 96% | 1014.3 hPa | 2.03 mm | - | 9 W/m² | - |
| 1777673740 | 12.78° C | 95% | 1013.8 hPa | 7.87 mm | - | 54 W/m² | - |
| 1777673418 | 12.78° C | 95% | 1013.6 hPa | 9.14 mm | - | 76 W/m² | - |
| 1777671621 | 13.33° C | 95% | 1014.4 hPa | 10.67 mm | - | 18 W/m² | - |
| 1777671321 | 13.33° C | 95% | 1014.1 hPa | 10.67 mm | - | 25 W/m² | - |
| 1777669518 | 13.33° C | 95% | 1013.4 hPa | 17.02 mm | - | 21 W/m² | - |
| 1777669249 | 13.89° C | 95% | 1013.5 hPa | 19.81 mm | - | 16 W/m² | - |
| 1777667119 | 14.44° C | 94% | 1013.9 hPa | 18.03 mm | - | 12 W/m² | - |
| 1777666821 | 14.44° C | 94% | 1014.2 hPa | 17.78 mm | - | 11 W/m² | - |
| 1777665636 | 14.44° C | 93% | 1014.9 hPa | 6.6 mm | - | 0 W/m² | - |
| 1777662329 | 16.67° C | 92% | 1012.2 hPa | 0 mm | - | 65 W/m² | - |
| 1777661419 | 16.67° C | 93% | 1012.9 hPa | 0 mm | - | 77 W/m² | - |
* Rain latest hour (hover to see other rain measurements)
** Current wind speed in m/s (hover to see current wind gust speed)